sensor_id;sensor_type;location;lat;lon;timestamp;pressure;altitude;pressure_sealevel;temperature;humidity
78373;BME280;67656;52.074;4.758;2023-04-06T00:00:01;101820.16;;;3.12;100.00
78373;BME280;67656;52.074;4.758;2023-04-06T00:05:02;101821.97;;;3.16;100.00
78373;BME280;67656;52.074;4.758;2023-04-06T00:10:03;101822.09;;;3.24;100.00
78373;BME280;67656;52.074;4.758;2023-04-06T00:15:04;101821.31;;;3.28;100.00
78373;BME280;67656;52.074;4.758;2023-04-06T00:20:05;101813.59;;;3.34;100.00
78373;BME280;67656;52.074;4.758;2023-04-06T00:25:05;101811.03;;;3.37;100.00
78373;BME280;67656;52.074;4.758;2023-04-06T00:30:06;101796.22;;;3.35;100.00
78373;BME280;67656;52.074;4.758;2023-04-06T00:35:07;101792.84;;;3.41;100.00
78373;BME280;67656;52.074;4.758;2023-04-06T00:40:08;101785.84;;;3.40;100.00
78373;BME280;67656;52.074;4.758;2023-04-06T00:45:09;101779.97;;;3.53;100.00
78373;BME280;67656;52.074;4.758;2023-04-06T00:50:09;101771.25;;;3.49;100.00
78373;BME280;67656;52.074;4.758;2023-04-06T00:55:10;101763.34;;;3.45;100.00
78373;BME280;67656;52.074;4.758;2023-04-06T01:00:15;101766.81;;;3.45;100.00
78373;BME280;67656;52.074;4.758;2023-04-06T01:05:18;101761.53;;;3.42;100.00
78373;BME280;67656;52.074;4.758;2023-04-06T01:10:28;101756.94;;;3.27;100.00
78373;BME280;67656;52.074;4.758;2023-04-06T01:15:36;101750.66;;;3.16;100.00
78373;BME280;67656;52.074;4.758;2023-04-06T01:20:37;101736.50;;;3.01;100.00
78373;BME280;67656;52.074;4.758;2023-04-06T01:25:38;101739.97;;;3.00;100.00
78373;BME280;67656;52.074;4.758;2023-04-06T01:30:41;101733.75;;;2.92;100.00
78373;BME280;67656;52.074;4.758;2023-04-06T01:35:51;101731.84;;;2.85;100.00
78373;BME280;67656;52.074;4.758;2023-04-06T01:40:54;101727.47;;;2.82;100.00
78373;BME280;67656;52.074;4.758;2023-04-06T01:45:56;101717.81;;;2.76;100.00
78373;BME280;67656;52.074;4.758;2023-04-06T01:51:02;101717.03;;;2.81;100.00
78373;BME280;67656;52.074;4.758;2023-04-06T01:56:06;101706.41;;;2.71;100.00
78373;BME280;67656;52.074;4.758;2023-04-06T02:01:11;101694.88;;;2.57;100.00
78373;BME280;67656;52.074;4.758;2023-04-06T02:06:24;101697.50;;;2.58;100.00
78373;BME280;67656;52.074;4.758;2023-04-06T02:11:25;101690.66;;;2.64;100.00
78373;BME280;67656;52.074;4.758;2023-04-06T02:16:28;101678.44;;;2.61;100.00
78373;BME280;67656;52.074;4.758;2023-04-06T02:21:29;101679.38;;;2.65;100.00
78373;BME280;67656;52.074;4.758;2023-04-06T02:26:29;101673.25;;;2.63;100.00
78373;BME280;67656;52.074;4.758;2023-04-06T02:31:32;101676.63;;;2.57;100.00
78373;BME280;67656;52.074;4.758;2023-04-06T02:36:33;101672.22;;;2.53;100.00
78373;BME280;67656;52.074;4.758;2023-04-06T02:41:33;101659.19;;;2.54;100.00
78373;BME280;67656;52.074;4.758;2023-04-06T02:46:34;101658.44;;;2.60;100.00
78373;BME280;67656;52.074;4.758;2023-04-06T02:51:36;101650.66;;;2.63;100.00
78373;BME280;67656;52.074;4.758;2023-04-06T02:56:51;101640.31;;;2.68;100.00
78373;BME280;67656;52.074;4.758;2023-04-06T03:01:52;101643.91;;;2.73;100.00
78373;BME280;67656;52.074;4.758;2023-04-06T03:06:54;101637.84;;;2.75;100.00
78373;BME280;67656;52.074;4.758;2023-04-06T03:12:05;101630.16;;;2.82;100.00
78373;BME280;67656;52.074;4.758;2023-04-06T03:17:15;101625.88;;;2.87;100.00
78373;BME280;67656;52.074;4.758;2023-04-06T03:22:15;101625.91;;;2.88;100.00
78373;BME280;67656;52.074;4.758;2023-04-06T03:27:16;101620.72;;;2.90;100.00
78373;BME280;67656;52.074;4.758;2023-04-06T03:32:18;101612.88;;;2.88;100.00
78373;BME280;67656;52.074;4.758;2023-04-06T03:37:20;101612.91;;;2.91;100.00
78373;BME280;67656;52.074;4.758;2023-04-06T03:42:25;101612.91;;;2.91;100.00
78373;BME280;67656;52.074;4.758;2023-04-06T03:47:31;101612.91;;;2.91;100.00
78373;BME280;67656;52.074;4.758;2023-04-06T03:52:35;101613.81;;;2.94;100.00
78373;BME280;67656;52.074;4.758;2023-04-06T03:57:36;101597.19;;;2.87;100.00
78373;BME280;67656;52.074;4.758;2023-04-06T04:02:36;101598.09;;;2.89;100.00
78373;BME280;67656;52.074;4.758;2023-04-06T04:07:36;101599.94;;;2.96;100.00
78373;BME280;67656;52.074;4.758;2023-04-06T04:12:37;101594.69;;;2.93;100.00
78373;BME280;67656;52.074;4.758;2023-04-06T04:17:37;101593.88;;;2.97;100.00
78373;BME280;67656;52.074;4.758;2023-04-06T04:22:40;101588.66;;;2.97;100.00
78373;BME280;67656;52.074;4.758;2023-04-06T04:27:40;101585.31;;;3.04;100.00
78373;BME280;67656;52.074;4.758;2023-04-06T04:32:41;101594.94;;;3.10;100.00
78373;BME280;67656;52.074;4.758;2023-04-06T04:37:43;101597.69;;;3.18;100.00
78373;BME280;67656;52.074;4.758;2023-04-06T04:42:44;101591.69;;;3.25;100.00
78373;BME280;67656;52.074;4.758;2023-04-06T04:47:52;101589.97;;;3.29;100.00
78373;BME280;67656;52.074;4.758;2023-04-06T04:52:54;101584.81;;;3.30;100.00
78373;BME280;67656;52.074;4.758;2023-04-06T04:57:57;101580.50;;;3.34;100.00
78373;BME280;67656;52.074;4.758;2023-04-06T05:03:21;101593.59;;;3.37;100.00
78373;BME280;67656;52.074;4.758;2023-04-06T05:08:29;101590.25;;;3.46;100.00
78373;BME280;67656;52.074;4.758;2023-04-06T05:13:30;101593.78;;;3.51;100.00
78373;BME280;67656;52.074;4.758;2023-04-06T05:18:31;101586.03;;;3.57;100.00
78373;BME280;67656;52.074;4.758;2023-04-06T05:23:33;101585.16;;;3.57;100.00
78373;BME280;67656;52.074;4.758;2023-04-06T05:28:36;101578.31;;;3.66;100.00
78373;BME280;67656;52.074;4.758;2023-04-06T05:33:41;101582.84;;;3.81;100.00
78373;BME280;67656;52.074;4.758;2023-04-06T05:38:45;101575.09;;;3.89;100.00
78373;BME280;67656;52.074;4.758;2023-04-06T05:44:01;101576.94;;;3.96;100.00
78373;BME280;67656;52.074;4.758;2023-04-06T05:49:02;101573.53;;;4.04;100.00
78373;BME280;67656;52.074;4.758;2023-04-06T05:54:06;101580.63;;;4.17;100.00
78373;BME280;67656;52.074;4.758;2023-04-06T05:59:07;101573.88;;;4.42;100.00
78373;BME280;67656;52.074;4.758;2023-04-06T06:04:07;101567.94;;;4.59;100.00
78373;BME280;67656;52.074;4.758;2023-04-06T06:09:11;101568.88;;;4.66;100.00
78373;BME280;67656;52.074;4.758;2023-04-06T06:14:18;101580.31;;;4.80;100.00
78373;BME280;67656;52.074;4.758;2023-04-06T06:19:18;101571.63;;;4.83;100.00
78373;BME280;67656;52.074;4.758;2023-04-06T06:24:19;101576.94;;;4.95;100.00
78373;BME280;67656;52.074;4.758;2023-04-06T06:29:20;101560.38;;;4.95;100.00
78373;BME280;67656;52.074;4.758;2023-04-06T06:34:20;101574.34;;;5.00;100.00
78373;BME280;67656;52.074;4.758;2023-04-06T06:39:21;101572.59;;;4.96;100.00
78373;BME280;67656;52.074;4.758;2023-04-06T06:44:23;101571.84;;;5.15;100.00
78373;BME280;67656;52.074;4.758;2023-04-06T06:49:24;101570.09;;;5.19;100.00
78373;BME280;67656;52.074;4.758;2023-04-06T06:54:24;101569.22;;;5.15;100.00
78373;BME280;67656;52.074;4.758;2023-04-06T06:59:25;101562.25;;;5.14;100.00
78373;BME280;67656;52.074;4.758;2023-04-06T07:04:25;101562.31;;;5.25;100.00
78373;BME280;67656;52.074;4.758;2023-04-06T07:09:26;101557.03;;;5.23;100.00
78373;BME280;67656;52.074;4.758;2023-04-06T07:14:26;101555.38;;;5.38;100.00
78373;BME280;67656;52.074;4.758;2023-04-06T07:19:26;101551.97;;;5.51;100.00
78373;BME280;67656;52.074;4.758;2023-04-06T07:24:27;101548.53;;;5.65;100.00
78373;BME280;67656;52.074;4.758;2023-04-06T07:29:28;101551.22;;;5.79;100.00
78373;BME280;67656;52.074;4.758;2023-04-06T07:34:28;101539.84;;;5.81;100.00
78373;BME280;67656;52.074;4.758;2023-04-06T07:39:29;101544.25;;;5.90;100.00
78373;BME280;67656;52.074;4.758;2023-04-06T07:44:31;101540.81;;;6.05;100.00
78373;BME280;67656;52.074;4.758;2023-04-06T07:49:32;101546.13;;;6.41;100.00
78373;BME280;67656;52.074;4.758;2023-04-06T07:54:33;101539.09;;;6.43;100.00
78373;BME280;67656;52.074;4.758;2023-04-06T07:59:34;101542.59;;;6.65;100.00
78373;BME280;67656;52.074;4.758;2023-04-06T08:04:41;101540.81;;;6.92;100.00
78373;BME280;67656;52.074;4.758;2023-04-06T08:09:41;101536.47;;;6.97;100.00
78373;BME280;67656;52.074;4.758;2023-04-06T08:14:42;101540.78;;;7.23;100.00
78373;BME280;67656;52.074;4.758;2023-04-06T08:19:43;101541.63;;;7.34;100.00
78373;BME280;67656;52.074;4.758;2023-04-06T08:24:53;101529.41;;;7.15;100.00
78373;BME280;67656;52.074;4.758;2023-04-06T08:30:03;101534.66;;;7.18;100.00
78373;BME280;67656;52.074;4.758;2023-04-06T08:35:12;101539.78;;;7.55;100.00
78373;BME280;67656;52.074;4.758;2023-04-06T08:40:13;101540.69;;;7.48;100.00
78373;BME280;67656;52.074;4.758;2023-04-06T08:45:16;101549.47;;;7.36;100.00
78373;BME280;67656;52.074;4.758;2023-04-06T08:50:17;101554.72;;;7.42;100.00
78373;BME280;67656;52.074;4.758;2023-04-06T08:55:18;101554.72;;;7.39;100.00
78373;BME280;67656;52.074;4.758;2023-04-06T09:00:19;101551.25;;;7.35;100.00
78373;BME280;67656;52.074;4.758;2023-04-06T09:05:39;101543.31;;;7.38;100.00
78373;BME280;67656;52.074;4.758;2023-04-06T09:10:45;101559.06;;;7.49;100.00
78373;BME280;67656;52.074;4.758;2023-04-06T09:15:46;101548.53;;;7.54;100.00
78373;BME280;67656;52.074;4.758;2023-04-06T09:21:00;101537.91;;;7.82;100.00
78373;BME280;67656;52.074;4.758;2023-04-06T09:26:17;101537.69;;;8.13;100.00
78373;BME280;67656;52.074;4.758;2023-04-06T09:31:25;101539.41;;;8.20;100.00
78373;BME280;67656;52.074;4.758;2023-04-06T09:36:35;101536.00;;;8.09;100.00
78373;BME280;67656;52.074;4.758;2023-04-06T09:42:06;101537.75;;;8.04;100.00
78373;BME280;67656;52.074;4.758;2023-04-06T09:47:13;101538.66;;;8.03;100.00
78373;BME280;67656;52.074;4.758;2023-04-06T09:52:14;101537.78;;;8.00;100.00
78373;BME280;67656;52.074;4.758;2023-04-06T10:07:33;101531.81;;;7.69;100.00
78373;BME280;67656;52.074;4.758;2023-04-06T10:12:33;101526.59;;;7.64;100.00
78373;BME280;67656;52.074;4.758;2023-04-06T10:17:34;101532.81;;;7.48;100.00
78373;BME280;67656;52.074;4.758;2023-04-06T10:22:48;101538.91;;;7.50;100.00
78373;BME280;67656;52.074;4.758;2023-04-06T10:27:59;101534.56;;;7.49;100.00
78373;BME280;67656;52.074;4.758;2023-04-06T10:32:59;101526.66;;;7.52;100.00
78373;BME280;67656;52.074;4.758;2023-04-06T10:38:02;101530.22;;;7.40;100.00
78373;BME280;67656;52.074;4.758;2023-04-06T10:43:22;101518.88;;;7.30;100.00
78373;BME280;67656;52.074;4.758;2023-04-06T10:48:23;101518.84;;;7.32;100.00
78373;BME280;67656;52.074;4.758;2023-04-06T10:53:25;101520.63;;;7.25;100.00
78373;BME280;67656;52.074;4.758;2023-04-06T10:58:27;101521.50;;;7.19;100.00
78373;BME280;67656;52.074;4.758;2023-04-06T11:03:27;101502.28;;;7.13;100.00
78373;BME280;67656;52.074;4.758;2023-04-06T11:08:32;101506.69;;;7.11;100.00
78373;BME280;67656;52.074;4.758;2023-04-06T11:13:40;101514.56;;;7.04;100.00
78373;BME280;67656;52.074;4.758;2023-04-06T11:24:06;101498.78;;;7.09;100.00
78373;BME280;67656;52.074;4.758;2023-04-06T11:29:07;101494.41;;;7.16;100.00
78373;BME280;67656;52.074;4.758;2023-04-06T11:34:17;101487.47;;;6.99;100.00
78373;BME280;67656;52.074;4.758;2023-04-06T11:39:22;101483.09;;;6.92;100.00
78373;BME280;67656;52.074;4.758;2023-04-06T11:44:40;101478.72;;;6.96;100.00
78373;BME280;67656;52.074;4.758;2023-04-06T11:49:42;101482.22;;;6.99;100.00
78373;BME280;67656;52.074;4.758;2023-04-06T11:54:43;101471.72;;;6.99;100.00
78373;BME280;67656;52.074;4.758;2023-04-06T11:59:44;101469.97;;;6.98;100.00
78373;BME280;67656;52.074;4.758;2023-04-06T12:04:45;101467.34;;;7.03;100.00
78373;BME280;67656;52.074;4.758;2023-04-06T12:09:45;101464.72;;;6.98;100.00
78373;BME280;67656;52.074;4.758;2023-04-06T12:14:46;101464.69;;;7.07;100.00
78373;BME280;67656;52.074;4.758;2023-04-06T12:19:46;101462.00;;;7.18;100.00
78373;BME280;67656;52.074;4.758;2023-04-06T12:24:47;101455.91;;;7.21;100.00
78373;BME280;67656;52.074;4.758;2023-04-06T12:29:47;101454.16;;;7.14;100.00
78373;BME280;67656;52.074;4.758;2023-04-06T12:34:47;101445.44;;;7.12;100.00
78373;BME280;67656;52.074;4.758;2023-04-06T12:39:48;101448.00;;;7.19;100.00
78373;BME280;67656;52.074;4.758;2023-04-06T12:44:48;101437.53;;;7.15;100.00
78373;BME280;67656;52.074;4.758;2023-04-06T12:49:48;101445.44;;;7.05;100.00
78373;BME280;67656;52.074;4.758;2023-04-06T12:54:48;101443.69;;;7.11;100.00
78373;BME280;67656;52.074;4.758;2023-04-06T12:59:49;101436.69;;;7.10;100.00
78373;BME280;67656;52.074;4.758;2023-04-06T13:04:49;101433.19;;;7.07;100.00
78373;BME280;67656;52.074;4.758;2023-04-06T13:09:51;101434.03;;;7.16;100.00
78373;BME280;67656;52.074;4.758;2023-04-06T13:14:51;101426.19;;;7.10;100.00
78373;BME280;67656;52.074;4.758;2023-04-06T13:19:51;101423.56;;;7.11;100.00
78373;BME280;67656;52.074;4.758;2023-04-06T13:24:52;101415.69;;;7.10;100.00
78373;BME280;67656;52.074;4.758;2023-04-06T13:29:52;101414.00;;;6.99;100.00
78373;BME280;67656;52.074;4.758;2023-04-06T13:34:56;101401.75;;;6.98;100.00
78373;BME280;67656;52.074;4.758;2023-04-06T13:39:56;101410.47;;;7.00;100.00
78373;BME280;67656;52.074;4.758;2023-04-06T13:44:57;101399.13;;;6.95;100.00
78373;BME280;67656;52.074;4.758;2023-04-06T13:49:57;101407.00;;;6.95;100.00
78373;BME280;67656;52.074;4.758;2023-04-06T13:54:58;101396.50;;;6.94;100.00
78373;BME280;67656;52.074;4.758;2023-04-06T13:59:58;101393.88;;;6.89;100.00
78373;BME280;67656;52.074;4.758;2023-04-06T14:04:58;101391.31;;;6.80;100.00
78373;BME280;67656;52.074;4.758;2023-04-06T14:09:59;101405.28;;;6.83;100.00
78373;BME280;67656;52.074;4.758;2023-04-06T14:14:59;101395.69;;;6.79;100.00
78373;BME280;67656;52.074;4.758;2023-04-06T14:20:00;101390.44;;;6.84;100.00
78373;BME280;67656;52.074;4.758;2023-04-06T14:25:00;101393.06;;;6.84;100.00
78373;BME280;67656;52.074;4.758;2023-04-06T14:30:00;101396.56;;;6.83;100.00
78373;BME280;67656;52.074;4.758;2023-04-06T14:35:01;101395.66;;;6.82;100.00
78373;BME280;67656;52.074;4.758;2023-04-06T14:40:02;101386.94;;;6.85;100.00
78373;BME280;67656;52.074;4.758;2023-04-06T14:45:03;101393.00;;;6.90;100.00
78373;BME280;67656;52.074;4.758;2023-04-06T14:50:04;101388.66;;;6.90;100.00
78373;BME280;67656;52.074;4.758;2023-04-06T14:55:05;101380.75;;;6.95;100.00
78373;BME280;67656;52.074;4.758;2023-04-06T15:00:06;101375.50;;;6.94;100.00
78373;BME280;67656;52.074;4.758;2023-04-06T15:05:07;101380.75;;;6.98;100.00
78373;BME280;67656;52.074;4.758;2023-04-06T15:10:08;101376.34;;;7.02;100.00
78373;BME280;67656;52.074;4.758;2023-04-06T15:15:08;101368.44;;;7.10;100.00
78373;BME280;67656;52.074;4.758;2023-04-06T15:20:09;101364.94;;;7.07;100.00
78373;BME280;67656;52.074;4.758;2023-04-06T15:25:09;101356.19;;;7.12;100.00
78373;BME280;67656;52.074;4.758;2023-04-06T15:30:10;101358.81;;;7.13;100.00
78373;BME280;67656;52.074;4.758;2023-04-06T15:35:11;101358.84;;;7.05;100.00
78373;BME280;67656;52.074;4.758;2023-04-06T15:40:12;101350.97;;;7.02;100.00
78373;BME280;67656;52.074;4.758;2023-04-06T15:45:12;101356.22;;;7.02;100.00
78373;BME280;67656;52.074;4.758;2023-04-06T15:50:13;101352.72;;;7.03;100.00
78373;BME280;67656;52.074;4.758;2023-04-06T15:55:13;101352.72;;;7.05;100.00
78373;BME280;67656;52.074;4.758;2023-04-06T16:00:17;101343.97;;;7.01;100.00
78373;BME280;67656;52.074;4.758;2023-04-06T16:05:17;101341.31;;;7.11;100.00
78373;BME280;67656;52.074;4.758;2023-04-06T16:10:18;101343.03;;;7.18;100.00
78373;BME280;67656;52.074;4.758;2023-04-06T16:15:18;101336.91;;;7.16;100.00
78373;BME280;67656;52.074;4.758;2023-04-06T16:20:18;101341.25;;;7.18;100.00
78373;BME280;67656;52.074;4.758;2023-04-06T16:25:19;101334.25;;;7.20;100.00
78373;BME280;67656;52.074;4.758;2023-04-06T16:30:19;101334.25;;;7.20;100.00
78373;BME280;67656;52.074;4.758;2023-04-06T16:35:19;101333.41;;;7.17;100.00
78373;BME280;67656;52.074;4.758;2023-04-06T16:40:20;101330.75;;;7.20;100.00
78373;BME280;67656;52.074;4.758;2023-04-06T16:45:20;101329.00;;;7.19;100.00
78373;BME280;67656;52.074;4.758;2023-04-06T16:50:20;101334.25;;;7.22;100.00
78373;BME280;67656;52.074;4.758;2023-04-06T16:55:21;101331.63;;;7.19;100.00
78373;BME280;67656;52.074;4.758;2023-04-06T17:00:21;101340.38;;;7.24;100.00
78373;BME280;67656;52.074;4.758;2023-04-06T17:05:22;101335.13;;;7.21;100.00
78373;BME280;67656;52.074;4.758;2023-04-06T17:10:22;101341.22;;;7.25;100.00
78373;BME280;67656;52.074;4.758;2023-04-06T17:15:23;101338.59;;;7.26;100.00
78373;BME280;67656;52.074;4.758;2023-04-06T17:20:23;101335.06;;;7.30;100.00
78373;BME280;67656;52.074;4.758;2023-04-06T17:25:23;101329.81;;;7.30;100.00
78373;BME280;67656;52.074;4.758;2023-04-06T17:30:24;101340.31;;;7.33;100.00
78373;BME280;67656;52.074;4.758;2023-04-06T17:35:24;101350.78;;;7.36;100.00
78373;BME280;67656;52.074;4.758;2023-04-06T17:40:25;101350.78;;;7.35;100.00
78373;BME280;67656;52.074;4.758;2023-04-06T17:45:25;101357.78;;;7.36;100.00
78373;BME280;67656;52.074;4.758;2023-04-06T17:50:25;101359.53;;;7.37;100.00
78373;BME280;67656;52.074;4.758;2023-04-06T17:55:26;101359.56;;;7.35;100.00
78373;BME280;67656;52.074;4.758;2023-04-06T18:00:26;101358.66;;;7.35;100.00
78373;BME280;67656;52.074;4.758;2023-04-06T18:05:27;101356.94;;;7.35;100.00
78373;BME280;67656;52.074;4.758;2023-04-06T18:10:28;101353.38;;;7.40;100.00
78373;BME280;67656;52.074;4.758;2023-04-06T18:15:28;101364.75;;;7.38;100.00
78373;BME280;67656;52.074;4.758;2023-04-06T18:20:28;101356.06;;;7.36;100.00
78373;BME280;67656;52.074;4.758;2023-04-06T18:25:29;101371.75;;;7.43;100.00
78373;BME280;67656;52.074;4.758;2023-04-06T18:30:29;101380.50;;;7.45;100.00
78373;BME280;67656;52.074;4.758;2023-04-06T18:35:29;101377.00;;;7.46;100.00
78373;BME280;67656;52.074;4.758;2023-04-06T18:40:32;101382.22;;;7.49;100.00
78373;BME280;67656;52.074;4.758;2023-04-06T18:45:34;101391.00;;;7.48;100.00
78373;BME280;67656;52.074;4.758;2023-04-06T18:50:35;101398.81;;;7.56;100.00
78373;BME280;67656;52.074;4.758;2023-04-06T18:55:35;101403.19;;;7.55;100.00
78373;BME280;67656;52.074;4.758;2023-04-06T19:00:38;101394.44;;;7.50;100.00
78373;BME280;67656;52.074;4.758;2023-04-06T19:05:40;101394.41;;;7.59;100.00
78373;BME280;67656;52.074;4.758;2023-04-06T19:10:40;101393.56;;;7.56;100.00
78373;BME280;67656;52.074;4.758;2023-04-06T19:15:41;101398.81;;;7.57;100.00
78373;BME280;67656;52.074;4.758;2023-04-06T19:20:41;101402.31;;;7.56;100.00
78373;BME280;67656;52.074;4.758;2023-04-06T19:25:41;101399.69;;;7.56;100.00
78373;BME280;67656;52.074;4.758;2023-04-06T19:30:42;101416.38;;;7.44;100.00
78373;BME280;67656;52.074;4.758;2023-04-06T19:35:42;101423.41;;;7.37;100.00
78373;BME280;67656;52.074;4.758;2023-04-06T19:40:42;101423.47;;;7.31;100.00
78373;BME280;67656;52.074;4.758;2023-04-06T19:45:43;101433.13;;;7.18;100.00
78373;BME280;67656;52.074;4.758;2023-04-06T19:50:44;101445.41;;;7.15;100.00
78373;BME280;67656;52.074;4.758;2023-04-06T19:55:44;101441.03;;;7.17;100.00
78373;BME280;67656;52.074;4.758;2023-04-06T20:00:44;101448.06;;;7.12;100.00
78373;BME280;67656;52.074;4.758;2023-04-06T20:05:45;101441.09;;;7.00;100.00
78373;BME280;67656;52.074;4.758;2023-04-06T20:10:45;101443.78;;;6.86;100.00
78373;BME280;67656;52.074;4.758;2023-04-06T20:15:45;101456.03;;;6.68;100.00
78373;BME280;67656;52.074;4.758;2023-04-06T20:20:46;101457.78;;;6.66;100.00
78373;BME280;67656;52.074;4.758;2023-04-06T20:25:46;101463.94;;;6.54;100.00
78373;BME280;67656;52.074;4.758;2023-04-06T20:30:51;101463.94;;;6.48;100.00
78373;BME280;67656;52.074;4.758;2023-04-06T20:35:58;101470.94;;;6.48;100.00
78373;BME280;67656;52.074;4.758;2023-04-06T20:40:59;101478.81;;;6.48;100.00
78373;BME280;67656;52.074;4.758;2023-04-06T20:45:59;101484.03;;;6.38;100.00
78373;BME280;67656;52.074;4.758;2023-04-06T20:51:01;101484.06;;;6.35;100.00
78373;BME280;67656;52.074;4.758;2023-04-06T20:56:01;101487.53;;;6.40;100.00
78373;BME280;67656;52.074;4.758;2023-04-06T21:01:01;101495.41;;;6.53;100.00
78373;BME280;67656;52.074;4.758;2023-04-06T21:06:02;101501.50;;;6.64;100.00
78373;BME280;67656;52.074;4.758;2023-04-06T21:11:02;101491.88;;;6.80;100.00
78373;BME280;67656;52.074;4.758;2023-04-06T21:16:03;101495.38;;;6.91;100.00
78373;BME280;67656;52.074;4.758;2023-04-06T21:21:04;101503.22;;;6.93;100.00
78373;BME280;67656;52.074;4.758;2023-04-06T21:26:04;101504.97;;;6.97;100.00
78373;BME280;67656;52.074;4.758;2023-04-06T21:31:05;101504.06;;;7.00;100.00
78373;BME280;67656;52.074;4.758;2023-04-06T21:36:07;101507.56;;;7.05;100.00
78373;BME280;67656;52.074;4.758;2023-04-06T21:41:07;101511.03;;;7.16;100.00
78373;BME280;67656;52.074;4.758;2023-04-06T21:46:08;101515.44;;;7.10;100.00
78373;BME280;67656;52.074;4.758;2023-04-06T21:51:15;101508.44;;;7.09;100.00
78373;BME280;67656;52.074;4.758;2023-04-06T21:56:20;101501.41;;;7.14;100.00
78373;BME280;67656;52.074;4.758;2023-04-06T22:01:20;101518.03;;;7.13;100.00
78373;BME280;67656;52.074;4.758;2023-04-06T22:06:21;101525.03;;;7.09;100.00
78373;BME280;67656;52.074;4.758;2023-04-06T22:11:21;101511.94;;;7.00;100.00
78373;BME280;67656;52.074;4.758;2023-04-06T22:16:21;101518.94;;;7.01;100.00
78373;BME280;67656;52.074;4.758;2023-04-06T22:21:22;101529.47;;;6.99;100.00
78373;BME280;67656;52.074;4.758;2023-04-06T22:26:22;101522.47;;;6.92;100.00
78373;BME280;67656;52.074;4.758;2023-04-06T22:31:23;101532.09;;;6.85;100.00
78373;BME280;67656;52.074;4.758;2023-04-06T22:36:23;101536.47;;;6.82;100.00
78373;BME280;67656;52.074;4.758;2023-04-06T22:41:23;101542.59;;;6.85;100.00
78373;BME280;67656;52.074;4.758;2023-04-06T22:46:24;101542.63;;;6.79;100.00
78373;BME280;67656;52.074;4.758;2023-04-06T22:51:24;101542.59;;;6.82;100.00
78373;BME280;67656;52.074;4.758;2023-04-06T22:56:24;101546.09;;;6.83;100.00
78373;BME280;67656;52.074;4.758;2023-04-06T23:01:25;101541.72;;;6.82;100.00
78373;BME280;67656;52.074;4.758;2023-04-06T23:06:25;101545.22;;;6.74;100.00
78373;BME280;67656;52.074;4.758;2023-04-06T23:11:25;101542.63;;;6.67;100.00
78373;BME280;67656;52.074;4.758;2023-04-06T23:16:26;101547.84;;;6.70;100.00
78373;BME280;67656;52.074;4.758;2023-04-06T23:21:26;101548.75;;;6.73;100.00
78373;BME280;67656;52.074;4.758;2023-04-06T23:26:26;101554.84;;;6.71;100.00
78373;BME280;67656;52.074;4.758;2023-04-06T23:31:26;101561.81;;;6.76;100.00
78373;BME280;67656;52.074;4.758;2023-04-06T23:36:27;101560.97;;;6.76;100.00
78373;BME280;67656;52.074;4.758;2023-04-06T23:41:27;101562.69;;;6.75;100.00
78373;BME280;67656;52.074;4.758;2023-04-06T23:46:27;101564.47;;;6.80;100.00
78373;BME280;67656;52.074;4.758;2023-04-06T23:51:28;101558.34;;;6.84;100.00
78373;BME280;67656;52.074;4.758;2023-04-06T23:56:28;101565.34;;;6.79;100.00
